createdAt,value
2023-02-08T00:00:27.340Z,82.06
2023-02-08T00:01:27.361Z,81.96
2023-02-08T00:02:27.419Z,81.96
2023-02-08T00:03:27.329Z,81.85
2023-02-08T00:04:27.307Z,81.85
2023-02-08T00:05:27.326Z,81.74
2023-02-08T00:06:27.267Z,81.74
2023-02-08T00:07:27.267Z,81.85
2023-02-08T00:08:27.261Z,81.64
2023-02-08T00:09:27.250Z,81.57
2023-02-08T00:10:27.239Z,81.78
2023-02-08T00:11:27.262Z,81.89
2023-02-08T00:12:27.211Z,81.68
2023-02-08T00:13:27.194Z,81.78
2023-02-08T00:14:27.187Z,81.78
2023-02-08T00:15:27.201Z,81.68
2023-02-08T00:16:27.177Z,81.68
2023-02-08T00:17:27.141Z,81.78
2023-02-08T00:18:27.131Z,81.89
2023-02-08T00:19:27.162Z,81.99
2023-02-08T00:20:27.135Z,82.10
2023-02-08T00:21:27.118Z,82.21
2023-02-08T00:22:27.105Z,82.31
2023-02-08T00:23:27.169Z,82.31
2023-02-08T00:24:27.062Z,82.31
2023-02-08T00:25:27.114Z,82.31
2023-02-08T00:26:27.043Z,82.21
2023-02-08T00:27:27.042Z,82.31
2023-02-08T00:28:27.095Z,82.31
2023-02-08T00:29:27.039Z,82.53
2023-02-08T00:30:27.005Z,82.63
2023-02-08T00:31:27.087Z,82.42
2023-02-08T00:32:27.008Z,81.89
2023-02-08T00:33:27.009Z,81.61
2023-02-08T00:34:26.940Z,81.50
2023-02-08T00:35:26.949Z,81.50
2023-02-08T00:36:26.944Z,81.61
2023-02-08T00:37:26.948Z,81.71
2023-02-08T00:38:26.910Z,82.03
2023-02-08T00:39:26.924Z,82.24
2023-02-08T00:40:26.879Z,82.35
2023-02-08T00:41:26.971Z,82.45
2023-02-08T00:42:26.854Z,82.45
2023-02-08T00:43:26.861Z,82.67
2023-02-08T00:44:26.852Z,82.77
2023-02-08T00:45:26.833Z,82.88
2023-02-08T00:46:26.866Z,82.98
2023-02-08T00:47:26.800Z,82.98
2023-02-08T00:48:26.796Z,82.77
2023-02-08T00:49:26.803Z,82.67
2023-02-08T00:50:26.817Z,82.77
2023-02-08T00:51:26.766Z,82.77
2023-02-08T00:52:26.762Z,82.88
2023-02-08T00:53:26.738Z,82.88
2023-02-08T00:54:26.729Z,82.88
2023-02-08T00:55:26.721Z,83.09
2023-02-08T00:56:26.719Z,83.20
2023-02-08T00:57:26.700Z,83.20
2023-02-08T00:58:26.675Z,83.09
2023-02-08T00:59:26.684Z,83.09
2023-02-08T01:00:26.717Z,82.95
2023-02-08T01:01:26.661Z,82.73
2023-02-08T01:02:26.654Z,82.53
2023-02-08T01:03:26.645Z,82.42
2023-02-08T01:04:26.636Z,82.21
2023-02-08T01:05:26.653Z,82.10
2023-02-08T01:06:26.597Z,82.14
2023-02-08T01:07:26.571Z,82.14
2023-02-08T01:08:26.582Z,82.14
2023-02-08T01:09:26.552Z,82.14
2023-02-08T01:10:26.577Z,82.14
2023-02-08T01:11:26.556Z,82.24
2023-02-08T01:12:26.533Z,82.24
2023-02-08T01:13:26.522Z,82.24
2023-02-08T01:14:26.523Z,82.14
2023-02-08T01:15:26.471Z,82.24
2023-02-08T01:16:26.540Z,82.35
2023-02-08T01:17:26.460Z,82.35
2023-02-08T01:18:26.453Z,82.67
2023-02-08T01:19:26.444Z,83.09
2023-02-08T01:20:26.459Z,83.20
2023-02-08T01:21:26.457Z,83.30
2023-02-08T01:22:26.411Z,83.30
2023-02-08T01:23:26.426Z,83.40
2023-02-08T01:24:26.384Z,83.40
2023-02-08T01:25:26.416Z,83.40
2023-02-08T01:26:26.399Z,83.40
2023-02-08T01:27:26.368Z,83.62
2023-02-08T01:28:26.415Z,83.72
2023-02-08T01:29:26.336Z,83.83
2023-02-08T01:30:26.467Z,83.62
2023-02-08T01:31:26.401Z,83.51
2023-02-08T01:32:26.297Z,83.40
2023-02-08T01:33:26.308Z,82.98
2023-02-08T01:34:26.277Z,82.56
2023-02-08T01:35:26.297Z,82.24
2023-02-08T01:36:26.266Z,82.03
2023-02-08T01:37:26.239Z,82.07
2023-02-08T01:38:26.247Z,81.96
2023-02-08T01:39:26.242Z,81.85
2023-02-08T01:40:26.224Z,81.85
2023-02-08T01:41:26.215Z,81.96
2023-02-08T01:42:26.189Z,82.07
2023-02-08T01:43:26.200Z,82.17
2023-02-08T01:44:26.168Z,82.39
2023-02-08T01:45:26.217Z,82.49
2023-02-08T01:46:26.188Z,82.60
2023-02-08T01:47:26.137Z,82.49
2023-02-08T01:48:26.138Z,82.49
2023-02-08T01:49:26.096Z,82.49
2023-02-08T01:50:26.098Z,82.28
2023-02-08T01:51:26.095Z,82.28
2023-02-08T01:52:26.114Z,82.49
2023-02-08T01:53:26.068Z,82.64
2023-02-08T01:54:26.040Z,82.60
2023-02-08T01:55:26.070Z,82.70
2023-02-08T01:56:26.038Z,82.81
2023-02-08T01:57:26.020Z,82.60
2023-02-08T01:58:26.028Z,82.49
2023-02-08T01:59:25.975Z,82.39
2023-02-08T02:00:25.980Z,82.28
2023-02-08T02:01:26.017Z,82.28
2023-02-08T02:02:25.973Z,82.28
2023-02-08T02:03:25.937Z,82.28
2023-02-08T02:04:26.019Z,82.39
2023-02-08T02:05:25.911Z,82.28
2023-02-08T02:06:25.926Z,82.70
2023-02-08T02:07:25.924Z,83.02
2023-02-08T02:08:25.902Z,83.12
2023-02-08T02:09:25.877Z,83.12
2023-02-08T02:10:25.875Z,83.23
2023-02-08T02:11:25.867Z,83.34
2023-02-08T02:12:25.880Z,83.55
2023-02-08T02:13:25.842Z,83.76
2023-02-08T02:14:25.820Z,83.55
2023-02-08T02:15:25.806Z,83.44
2023-02-08T02:16:25.852Z,83.40
2023-02-08T02:17:25.824Z,83.76
2023-02-08T02:18:25.813Z,84.67
2023-02-08T02:19:25.760Z,85.41
2023-02-08T02:20:25.761Z,85.63
2023-02-08T02:21:25.757Z,85.63
2023-02-08T02:22:25.791Z,85.84
2023-02-08T02:23:25.739Z,86.16
2023-02-08T02:24:25.727Z,86.36
2023-02-08T02:25:25.708Z,86.47
2023-02-08T02:26:25.688Z,86.26
2023-02-08T02:27:25.682Z,85.84
2023-02-08T02:28:25.687Z,85.73
2023-02-08T02:29:25.640Z,85.63
2023-02-08T02:30:25.670Z,85.27
2023-02-08T02:31:25.686Z,84.78
2023-02-08T02:32:25.630Z,84.32
2023-02-08T02:33:25.650Z,84.25
2023-02-08T02:34:25.599Z,84.57
2023-02-08T02:35:25.610Z,85.10
2023-02-08T02:36:25.589Z,85.63
2023-02-08T02:37:25.576Z,85.94
2023-02-08T02:38:25.563Z,86.26
2023-02-08T02:39:25.520Z,86.47
2023-02-08T02:40:25.539Z,86.26
2023-02-08T02:41:25.530Z,86.16
2023-02-08T02:42:25.521Z,86.26
2023-02-08T02:43:25.523Z,86.47
2023-02-08T02:44:25.505Z,86.68
2023-02-08T02:45:25.478Z,86.79
2023-02-08T02:46:25.495Z,87.00
2023-02-08T02:47:25.434Z,87.10
2023-02-08T02:48:25.476Z,87.10
2023-02-08T02:49:25.457Z,87.10
2023-02-08T02:50:25.459Z,87.10
2023-02-08T02:51:25.428Z,87.21
2023-02-08T02:52:25.398Z,87.21
2023-02-08T02:53:25.378Z,87.21
2023-02-08T02:54:25.400Z,87.32
2023-02-08T02:55:25.388Z,87.32
2023-02-08T02:56:25.346Z,87.32
2023-02-08T02:57:25.386Z,87.32
2023-02-08T02:58:25.318Z,87.10
2023-02-08T02:59:25.371Z,87.00
2023-02-08T03:00:25.369Z,86.54
2023-02-08T03:01:25.318Z,86.16
2023-02-08T03:02:25.298Z,85.84
2023-02-08T03:03:25.266Z,85.73
2023-02-08T03:04:25.294Z,85.63
2023-02-08T03:05:25.248Z,85.98
2023-02-08T03:06:25.256Z,86.51
2023-02-08T03:07:25.223Z,87.08
2023-02-08T03:08:25.230Z,87.50
2023-02-08T03:09:25.220Z,88.07
2023-02-08T03:10:25.182Z,88.49
2023-02-08T03:11:25.216Z,88.71
2023-02-08T03:12:25.161Z,88.98
2023-02-08T03:13:25.160Z,88.88
2023-02-08T03:14:25.185Z,88.67
2023-02-08T03:15:25.148Z,88.67
2023-02-08T03:16:25.146Z,88.67
2023-02-08T03:17:25.146Z,88.92
2023-02-08T03:18:25.105Z,89.03
2023-02-08T03:19:25.096Z,89.23
2023-02-08T03:20:25.106Z,89.40
2023-02-08T03:21:25.062Z,89.30
2023-02-08T03:22:25.106Z,89.20
2023-02-08T03:23:25.056Z,89.09
2023-02-08T03:24:25.041Z,88.88
2023-02-08T03:25:25.060Z,88.62
2023-02-08T03:26:25.042Z,88.42
2023-02-08T03:27:25.051Z,88.20
2023-02-08T03:28:25.000Z,87.99
2023-02-08T03:29:24.998Z,87.88
2023-02-08T03:30:24.975Z,87.78
2023-02-08T03:31:25.126Z,87.36
2023-02-08T03:32:24.968Z,87.25
2023-02-08T03:33:24.934Z,87.25
2023-02-08T03:34:24.916Z,87.04
2023-02-08T03:35:24.903Z,87.15
2023-02-08T03:36:24.945Z,87.29
2023-02-08T03:37:24.892Z,87.40
2023-02-08T03:38:24.921Z,87.57
2023-02-08T03:39:24.865Z,87.68
2023-02-08T03:40:24.855Z,87.68
2023-02-08T03:41:24.877Z,87.68
2023-02-08T03:42:24.849Z,87.46
2023-02-08T03:43:24.817Z,87.32
2023-02-08T03:44:24.811Z,87.10
2023-02-08T03:45:24.841Z,87.10
2023-02-08T03:46:24.899Z,87.74
2023-02-08T03:47:24.817Z,88.27
2023-02-08T03:48:24.758Z,88.54
2023-02-08T03:49:24.811Z,88.86
2023-02-08T03:50:24.764Z,88.97
2023-02-08T03:51:24.758Z,88.97
2023-02-08T03:52:24.721Z,88.97
2023-02-08T03:53:24.709Z,88.82
2023-02-08T03:54:24.704Z,88.71
2023-02-08T03:55:24.745Z,88.51
2023-02-08T03:56:24.676Z,88.29
2023-02-08T03:57:24.690Z,88.09
2023-02-08T03:58:24.662Z,87.87
2023-02-08T03:59:24.644Z,87.55
2023-02-08T04:00:24.669Z,87.30
2023-02-08T04:01:24.664Z,87.03
2023-02-08T04:02:24.667Z,86.82
2023-02-08T04:03:24.589Z,86.60
2023-02-08T04:04:24.609Z,86.60
2023-02-08T04:05:24.596Z,86.50
2023-02-08T04:06:24.579Z,86.50
2023-02-08T04:07:24.585Z,86.40
2023-02-08T04:08:24.524Z,86.29
2023-02-08T04:09:24.541Z,86.29
2023-02-08T04:10:24.548Z,86.29
2023-02-08T04:11:24.529Z,86.29
2023-02-08T04:12:24.518Z,86.40
2023-02-08T04:13:24.496Z,86.40
2023-02-08T04:14:24.464Z,86.18
2023-02-08T04:15:24.489Z,86.08
2023-02-08T04:16:24.445Z,85.97
2023-02-08T04:17:24.467Z,85.91
2023-02-08T04:18:24.479Z,86.01
2023-02-08T04:19:24.449Z,85.91
2023-02-08T04:20:24.442Z,86.36
2023-02-08T04:21:24.392Z,87.04
2023-02-08T04:22:24.410Z,87.82
2023-02-08T04:23:24.385Z,88.24
2023-02-08T04:24:24.359Z,88.77
2023-02-08T04:25:24.378Z,89.34
2023-02-08T04:26:24.339Z,89.87
2023-02-08T04:27:24.366Z,90.19
2023-02-08T04:28:24.341Z,90.19
2023-02-08T04:29:24.322Z,90.61
2023-02-08T04:30:24.325Z,90.93
2023-02-08T04:31:24.383Z,91.14
2023-02-08T04:32:24.282Z,91.25
2023-02-08T04:33:24.259Z,91.03
2023-02-08T04:34:24.237Z,91.03
2023-02-08T04:35:24.273Z,91.03
2023-02-08T04:36:24.246Z,91.03
2023-02-08T04:37:24.221Z,91.03
2023-02-08T04:38:24.211Z,91.03
2023-02-08T04:39:24.203Z,91.29
2023-02-08T04:40:24.173Z,91.39
2023-02-08T04:41:24.192Z,91.61
2023-02-08T04:42:24.157Z,91.78
2023-02-08T04:43:24.165Z,91.88
2023-02-08T04:44:24.176Z,91.78
2023-02-08T04:45:24.135Z,91.46
2023-02-08T04:46:24.162Z,91.25
2023-02-08T04:47:24.100Z,91.25
2023-02-08T04:48:24.127Z,91.08
2023-02-08T04:49:24.078Z,91.22
2023-02-08T04:50:24.135Z,91.54
2023-02-08T04:51:24.055Z,91.86
2023-02-08T04:52:24.058Z,92.18
2023-02-08T04:53:24.026Z,92.39
2023-02-08T04:54:24.053Z,92.60
2023-02-08T04:55:24.036Z,92.92
2023-02-08T04:56:24.018Z,93.09
2023-02-08T04:57:23.992Z,93.09
2023-02-08T04:58:23.968Z,92.88
2023-02-08T04:59:23.966Z,92.88
2023-02-08T05:00:24.010Z,92.77
2023-02-08T05:01:23.974Z,92.66
2023-02-08T05:02:23.957Z,92.45
2023-02-08T05:03:23.933Z,92.35
2023-02-08T05:04:23.919Z,92.30
2023-02-08T05:05:24.015Z,92.10
2023-02-08T05:06:23.905Z,91.67
2023-02-08T05:07:23.874Z,91.50
2023-02-08T05:08:23.879Z,91.39
2023-02-08T05:09:23.860Z,91.29
2023-02-08T05:10:23.855Z,91.39
2023-02-08T05:11:23.848Z,91.29
2023-02-08T05:12:23.826Z,91.18
2023-02-08T05:13:23.823Z,91.08
2023-02-08T05:14:23.833Z,90.91
2023-02-08T05:15:23.854Z,90.80
2023-02-08T05:16:23.901Z,90.69
2023-02-08T05:17:23.777Z,90.80
2023-02-08T05:18:23.763Z,90.91
2023-02-08T05:19:23.733Z,91.05
2023-02-08T05:20:23.744Z,91.05
2023-02-08T05:21:23.783Z,91.16
2023-02-08T05:22:23.696Z,91.22
2023-02-08T05:23:23.706Z,91.01
2023-02-08T05:24:23.687Z,91.05
2023-02-08T05:25:23.708Z,90.95
2023-02-08T05:26:23.674Z,91.16
2023-02-08T05:27:23.663Z,91.12
2023-02-08T05:28:23.784Z,91.12
2023-02-08T05:29:23.615Z,91.12
2023-02-08T05:30:23.640Z,90.91
2023-02-08T05:31:23.741Z,90.65
2023-02-08T05:32:23.610Z,90.44
2023-02-08T05:33:23.651Z,90.12
2023-02-08T05:34:23.614Z,90.01
2023-02-08T05:35:23.568Z,89.87
2023-02-08T05:36:23.580Z,89.87
2023-02-08T05:37:23.538Z,89.66
2023-02-08T05:38:23.541Z,89.23
2023-02-08T05:39:23.589Z,89.03
2023-02-08T05:40:23.516Z,88.81
2023-02-08T05:41:23.518Z,88.60
2023-02-08T05:42:23.486Z,88.18
2023-02-08T05:43:23.454Z,87.96
2023-02-08T05:44:23.519Z,87.75
2023-02-08T05:45:23.432Z,87.75
2023-02-08T05:46:23.495Z,87.86
2023-02-08T05:47:23.438Z,87.75
2023-02-08T05:48:23.415Z,87.65
2023-02-08T05:49:23.392Z,87.65
2023-02-08T05:50:23.405Z,87.65
2023-02-08T05:51:23.384Z,87.33
2023-02-08T05:52:23.448Z,86.91
2023-02-08T05:53:23.353Z,86.91
2023-02-08T05:54:23.364Z,86.84
2023-02-08T05:55:23.328Z,86.94
2023-02-08T05:56:23.327Z,87.30
2023-02-08T05:57:23.342Z,87.83
2023-02-08T05:58:23.284Z,88.26
2023-02-08T05:59:23.302Z,88.43
2023-02-08T06:00:23.309Z,88.53
2023-02-08T06:01:23.268Z,88.53
2023-02-08T06:02:23.260Z,88.43
2023-02-08T06:03:23.274Z,88.32
2023-02-08T06:04:23.338Z,88.07
2023-02-08T06:05:23.203Z,87.86
2023-02-08T06:06:23.257Z,87.65
2023-02-08T06:07:23.202Z,87.65
2023-02-08T06:08:23.181Z,87.93
2023-02-08T06:09:23.163Z,88.24
2023-02-08T06:10:23.163Z,88.35
2023-02-08T06:11:23.153Z,88.24
2023-02-08T06:12:23.170Z,88.10
2023-02-08T06:13:23.132Z,87.99
2023-02-08T06:14:23.122Z,87.78
2023-02-08T06:15:23.147Z,87.68
2023-02-08T06:16:23.111Z,87.57
2023-02-08T06:17:23.092Z,87.46
2023-02-08T06:18:23.111Z,87.46
2023-02-08T06:19:23.073Z,87.46
2023-02-08T06:20:23.050Z,87.36
2023-02-08T06:21:24.600Z,87.15
2023-02-08T06:22:23.021Z,87.15
2023-02-08T06:23:23.003Z,87.04
2023-02-08T06:24:23.050Z,87.15
2023-02-08T06:25:23.004Z,87.25
2023-02-08T06:26:23.027Z,87.46
2023-02-08T06:27:22.977Z,87.42
2023-02-08T06:28:22.975Z,87.10
2023-02-08T06:29:22.949Z,87.00
2023-02-08T06:30:22.956Z,86.79
2023-02-08T06:31:22.994Z,86.47
2023-02-08T06:32:22.948Z,85.73
2023-02-08T06:33:22.909Z,85.41
2023-02-08T06:34:22.924Z,85.31
2023-02-08T06:35:22.986Z,85.24
2023-02-08T06:36:22.870Z,85.41
2023-02-08T06:37:22.902Z,85.52
2023-02-08T06:38:22.873Z,85.52
2023-02-08T06:39:22.847Z,85.63
2023-02-08T06:40:22.846Z,85.41
2023-02-08T06:41:22.843Z,85.21
2023-02-08T06:42:22.798Z,85.10
2023-02-08T06:43:22.808Z,85.10
2023-02-08T06:44:22.781Z,85.10
2023-02-08T06:45:22.809Z,85.21
2023-02-08T06:46:22.768Z,85.10
2023-02-08T06:47:22.747Z,84.78
2023-02-08T06:48:22.740Z,84.46
2023-02-08T06:49:22.718Z,84.25
2023-02-08T06:50:24.185Z,84.19
2023-02-08T06:51:22.799Z,84.19
2023-02-08T06:52:22.700Z,84.29
2023-02-08T06:53:22.712Z,84.67
2023-02-08T06:54:22.678Z,84.89
2023-02-08T06:55:22.656Z,84.67
2023-02-08T06:56:22.660Z,84.46
2023-02-08T06:57:22.652Z,84.14
2023-02-08T06:58:22.639Z,83.94
2023-02-08T06:59:22.598Z,83.94
2023-02-08T07:00:22.648Z,84.04
2023-02-08T07:01:22.708Z,84.04
2023-02-08T07:02:22.608Z,83.83
2023-02-08T07:03:22.639Z,83.83
2023-02-08T07:04:22.818Z,84.04
2023-02-08T07:05:22.540Z,83.87
2023-02-08T07:06:22.545Z,83.87
2023-02-08T07:07:22.541Z,83.97
2023-02-08T07:08:22.587Z,84.08
2023-02-08T07:09:22.511Z,83.97
2023-02-08T07:10:22.533Z,84.19
2023-02-08T07:11:22.471Z,84.29
2023-02-08T07:12:22.459Z,84.39
2023-02-08T07:13:22.442Z,84.50
2023-02-08T07:14:22.507Z,84.71
2023-02-08T07:15:22.428Z,84.82
2023-02-08T07:16:22.465Z,84.82
2023-02-08T07:17:22.425Z,84.82
2023-02-08T07:18:22.435Z,84.61
2023-02-08T07:19:25.752Z,84.50
2023-02-08T07:20:22.398Z,84.50
2023-02-08T07:21:22.354Z,84.39
2023-02-08T07:22:22.365Z,84.08
2023-02-08T07:23:22.382Z,83.76
2023-02-08T07:24:22.356Z,83.55
2023-02-08T07:25:22.369Z,83.65
2023-02-08T07:26:22.349Z,83.51
2023-02-08T07:27:24.008Z,83.51
2023-02-08T07:28:23.376Z,83.23
2023-02-08T07:29:22.360Z,83.12
2023-02-08T07:30:22.274Z,83.09
2023-02-08T07:31:22.261Z,83.09
2023-02-08T07:32:22.260Z,82.98
2023-02-08T07:33:22.224Z,82.88
2023-02-08T07:34:22.271Z,82.98
2023-02-08T07:35:22.275Z,82.88
2023-02-08T07:36:22.208Z,82.88
2023-02-08T07:37:22.207Z,82.73
2023-02-08T07:38:22.209Z,82.53
2023-02-08T07:39:22.166Z,82.42
2023-02-08T07:40:22.280Z,82.31
2023-02-08T07:41:22.140Z,81.99
2023-02-08T07:42:22.154Z,81.96
2023-02-08T07:43:22.137Z,81.64
2023-02-08T07:44:22.111Z,81.43
2023-02-08T07:45:22.149Z,81.32
2023-02-08T07:46:22.266Z,81.12
2023-02-08T07:47:22.070Z,80.97
2023-02-08T07:48:22.057Z,80.87
2023-02-08T07:49:22.051Z,80.65
2023-02-08T07:50:22.073Z,80.44
2023-02-08T07:51:22.125Z,80.13
2023-02-08T07:52:22.054Z,79.88
2023-02-08T07:53:22.023Z,79.77
2023-02-08T07:54:22.021Z,79.56
2023-02-08T07:55:22.002Z,79.46
2023-02-08T07:56:21.962Z,78.93
2023-02-08T07:57:22.004Z,78.93
2023-02-08T07:58:24.994Z,79.03
2023-02-08T07:59:21.966Z,79.14
2023-02-08T08:00:21.953Z,79.14
2023-02-08T08:01:23.195Z,79.14
2023-02-08T08:02:22.916Z,79.14
2023-02-08T08:03:21.918Z,79.10
2023-02-08T08:04:22.020Z,79.00
2023-02-08T08:05:22.234Z,78.89
2023-02-08T08:06:22.077Z,78.79
2023-02-08T08:07:21.862Z,78.79
2023-02-08T08:08:21.890Z,78.79
2023-02-08T08:09:23.675Z,78.68
2023-02-08T08:10:21.859Z,78.58
2023-02-08T08:11:21.825Z,78.47
2023-02-08T08:12:21.806Z,78.54
2023-02-08T08:13:21.786Z,78.47
2023-02-08T08:14:21.777Z,78.47
2023-02-08T08:15:21.869Z,78.44
2023-02-08T08:16:21.905Z,78.54
2023-02-08T08:17:21.749Z,78.22
2023-02-08T08:18:21.760Z,78.12
2023-02-08T08:19:21.729Z,78.02
2023-02-08T08:20:21.750Z,77.91
2023-02-08T08:21:21.780Z,77.84
2023-02-08T08:22:21.703Z,77.94
2023-02-08T08:23:21.992Z,78.05
2023-02-08T08:24:21.898Z,78.16
2023-02-08T08:25:21.666Z,78.36
2023-02-08T08:26:21.671Z,78.33
2023-02-08T08:27:21.662Z,78.26
2023-02-08T08:28:21.708Z,78.16
2023-02-08T08:29:21.615Z,78.16
2023-02-08T08:30:21.606Z,78.47
2023-02-08T08:31:21.818Z,78.93
2023-02-08T08:32:21.671Z,79.14
2023-02-08T08:33:21.599Z,79.60
2023-02-08T08:34:21.568Z,79.91
2023-02-08T08:35:21.557Z,80.23
2023-02-08T08:36:21.557Z,80.41
2023-02-08T08:37:21.537Z,80.19
2023-02-08T08:38:21.575Z,80.19
2023-02-08T08:39:21.542Z,80.09
2023-02-08T08:40:22.288Z,79.99
2023-02-08T08:41:21.504Z,80.02
2023-02-08T08:42:21.492Z,80.13
2023-02-08T08:43:21.491Z,80.69
2023-02-08T08:44:21.489Z,81.32
2023-02-08T08:45:21.483Z,81.68
2023-02-08T08:46:21.488Z,82.17
2023-02-08T08:47:21.454Z,82.48
2023-02-08T08:48:21.414Z,82.21
2023-02-08T08:49:21.459Z,82.42
2023-02-08T08:50:21.420Z,82.84
2023-02-08T08:51:21.388Z,82.84
2023-02-08T08:52:21.374Z,82.63
2023-02-08T08:53:21.352Z,82.63
2023-02-08T08:54:21.352Z,82.73
2023-02-08T08:55:21.338Z,82.95
2023-02-08T08:56:21.354Z,83.20
2023-02-08T08:57:21.305Z,83.58
2023-02-08T08:58:21.324Z,83.79
2023-02-08T08:59:21.355Z,84.00
2023-02-08T09:00:21.273Z,83.69
2023-02-08T09:01:21.360Z,83.47
2023-02-08T09:02:21.268Z,83.37
2023-02-08T09:03:21.302Z,83.47
2023-02-08T09:04:21.222Z,83.58
2023-02-08T09:05:21.221Z,83.65
2023-02-08T09:06:21.213Z,83.44
2023-02-08T09:07:21.242Z,83.05
2023-02-08T09:08:21.191Z,83.26
2023-02-08T09:09:21.217Z,83.62
2023-02-08T09:10:22.245Z,84.11
2023-02-08T09:11:21.193Z,84.42
2023-02-08T09:12:21.165Z,84.74
2023-02-08T09:13:21.124Z,84.64
2023-02-08T09:14:21.133Z,84.17
2023-02-08T09:15:21.131Z,83.86
2023-02-08T09:16:21.228Z,84.07
2023-02-08T09:17:21.081Z,84.03
2023-02-08T09:18:21.107Z,83.61
2023-02-08T09:19:21.101Z,83.26
2023-02-08T09:20:21.067Z,82.62
2023-02-08T09:21:21.494Z,81.99
2023-02-08T09:22:21.079Z,81.57
2023-02-08T09:23:21.035Z,81.43
2023-02-08T09:24:20.989Z,81.43
2023-02-08T09:25:21.058Z,81.32
2023-02-08T09:26:21.040Z,80.86
2023-02-08T09:27:20.960Z,80.65
2023-02-08T09:28:21.063Z,80.44
2023-02-08T09:29:21.191Z,80.44
2023-02-08T09:30:21.001Z,80.30
2023-02-08T09:31:24.089Z,79.88
2023-02-08T09:32:20.912Z,79.56
2023-02-08T09:33:21.936Z,79.35
2023-02-08T09:34:20.890Z,79.42
2023-02-08T09:35:20.868Z,79.52
2023-02-08T09:36:21.208Z,79.32
2023-02-08T09:37:20.894Z,79.00
2023-02-08T09:38:20.865Z,78.75
2023-02-08T09:39:20.843Z,78.54
2023-02-08T09:40:20.828Z,78.44
2023-02-08T09:41:20.841Z,78.33
2023-02-08T09:42:21.040Z,78.19
2023-02-08T09:43:20.840Z,78.30
2023-02-08T09:44:20.776Z,78.08
2023-02-08T09:45:20.769Z,77.98
2023-02-08T09:46:20.860Z,77.84
2023-02-08T09:47:20.815Z,77.21
2023-02-08T09:48:20.742Z,77.07
2023-02-08T09:49:20.789Z,76.82
2023-02-08T09:50:20.736Z,76.26
2023-02-08T09:51:20.726Z,75.11
2023-02-08T09:52:20.803Z,73.08
2023-02-08T09:53:20.677Z,71.56
2023-02-08T09:54:20.741Z,66.77
2023-02-08T09:55:20.984Z,62.48
2023-02-08T09:56:21.715Z,59.80
2023-02-08T09:57:20.652Z,57.35
2023-02-08T09:58:20.641Z,56.83
2023-02-08T09:59:20.704Z,56.68
2023-02-08T10:00:21.330Z,55.25
2023-02-08T10:01:20.986Z,53.46
2023-02-08T10:02:21.431Z,52.43
2023-02-08T10:03:20.681Z,52.30
2023-02-08T10:04:20.569Z,51.97
2023-02-08T10:05:20.565Z,51.63
2023-02-08T10:06:20.649Z,50.47
2023-02-08T10:07:20.523Z,50.45
2023-02-08T10:08:20.520Z,49.49
2023-02-08T10:09:20.656Z,48.75
2023-02-08T10:10:20.536Z,48.65
2023-02-08T10:11:21.772Z,48.33
2023-02-08T10:12:20.633Z,48.65
2023-02-08T10:13:23.995Z,48.41
2023-02-08T10:14:21.727Z,48.52
2023-02-08T10:15:21.146Z,48.10
2023-02-08T10:16:20.649Z,48.36
2023-02-08T10:17:20.644Z,49.18
2023-02-08T10:18:21.812Z,49.18
2023-02-08T10:19:20.435Z,49.05
2023-02-08T10:20:20.871Z,49.08
2023-02-08T10:21:21.362Z,49.68
2023-02-08T10:22:20.749Z,49.26
2023-02-08T10:23:22.420Z,49.70
2023-02-08T10:24:20.587Z,49.72
2023-02-08T10:25:21.189Z,50.57
2023-02-08T10:26:20.528Z,50.45
2023-02-08T10:27:20.360Z,50.63
2023-02-08T10:28:20.717Z,49.94
2023-02-08T10:29:20.766Z,49.19
2023-02-08T10:30:21.091Z,47.83
2023-02-08T10:31:21.620Z,46.78
2023-02-08T10:32:21.072Z,46.04
2023-02-08T10:33:20.600Z,45.42
2023-02-08T10:34:20.220Z,45.21
2023-02-08T10:35:21.066Z,45.29
2023-02-08T10:36:20.224Z,45.50
2023-02-08T10:37:21.002Z,44.89
2023-02-08T10:38:21.402Z,44.84
2023-02-08T10:39:20.171Z,43.87
2023-02-08T10:40:20.154Z,42.83
2023-02-08T10:41:20.135Z,42.11
2023-02-08T10:42:20.361Z,41.90
2023-02-08T10:43:20.115Z,41.82
2023-02-08T10:44:20.118Z,42.62
2023-02-08T10:45:24.737Z,43.01
2023-02-08T10:46:20.116Z,42.38
2023-02-08T10:47:20.207Z,42.29
2023-02-08T10:48:20.033Z,42.29
2023-02-08T10:49:20.066Z,43.01
2023-02-08T10:50:20.049Z,42.40
2023-02-08T10:51:20.484Z,41.47
2023-02-08T10:52:19.985Z,41.58
2023-02-08T10:53:20.007Z,41.88
2023-02-08T10:54:19.985Z,42.19
2023-02-08T10:55:20.029Z,42.62
2023-02-08T10:56:19.967Z,42.32
2023-02-08T10:57:19.943Z,42.32
2023-02-08T10:58:19.961Z,41.80
2023-02-08T10:59:19.917Z,41.90
2023-02-08T11:00:19.934Z,40.34
2023-02-08T11:01:21.070Z,39.40
2023-02-08T11:02:19.877Z,39.62
2023-02-08T11:03:19.892Z,39.81
2023-02-08T11:04:19.930Z,37.98
2023-02-08T11:05:19.874Z,38.29
2023-02-08T11:06:19.828Z,38.77
2023-02-08T11:07:19.835Z,37.84
2023-02-08T11:08:19.869Z,38.13
2023-02-08T11:09:19.786Z,38.42
2023-02-08T11:10:20.307Z,36.38
2023-02-08T11:11:20.365Z,37.30
2023-02-08T11:12:20.352Z,37.50
2023-02-08T11:13:21.008Z,37.60
2023-02-08T11:14:20.462Z,37.52
2023-02-08T11:15:19.891Z,37.02
2023-02-08T11:16:20.656Z,37.41
2023-02-08T11:17:19.852Z,37.30
2023-02-08T11:18:20.050Z,37.59
2023-02-08T11:19:20.625Z,37.37
2023-02-08T11:20:20.485Z,37.40
2023-02-08T11:21:19.860Z,37.83
2023-02-08T11:22:20.099Z,37.52
2023-02-08T11:23:19.778Z,37.19
2023-02-08T11:24:20.759Z,37.79
2023-02-08T11:25:21.582Z,37.28
2023-02-08T11:26:19.653Z,36.98
2023-02-08T11:27:20.669Z,36.36
2023-02-08T11:28:20.112Z,36.96
2023-02-08T11:29:21.553Z,36.36
2023-02-08T11:30:20.166Z,36.90
2023-02-08T11:31:19.799Z,37.21
2023-02-08T11:32:20.444Z,37.21
2023-02-08T11:33:19.537Z,37.62
2023-02-08T11:34:19.848Z,37.81
2023-02-08T11:35:20.718Z,37.81
2023-02-08T11:36:21.425Z,37.81
2023-02-08T11:37:20.337Z,38.22
2023-02-08T11:38:20.641Z,37.18
2023-02-08T11:39:20.520Z,36.79
2023-02-08T11:40:20.385Z,37.41
2023-02-08T11:41:20.564Z,37.40
2023-02-08T11:42:19.544Z,37.71
2023-02-08T11:43:19.425Z,36.98
2023-02-08T11:44:19.391Z,37.24
2023-02-08T11:45:19.391Z,36.94
2023-02-08T11:46:19.830Z,37.37
2023-02-08T11:47:21.415Z,37.37
2023-02-08T11:48:19.397Z,37.57
2023-02-08T11:49:19.370Z,37.28
2023-02-08T11:50:19.351Z,37.90
2023-02-08T11:51:19.319Z,37.07
2023-02-08T11:52:19.328Z,37.05
2023-02-08T11:53:19.317Z,37.24
2023-02-08T11:54:19.304Z,36.31
2023-02-08T11:55:19.283Z,36.10
2023-02-08T11:56:19.271Z,36.12
2023-02-08T11:57:19.266Z,36.63
2023-02-08T11:58:19.241Z,36.53
2023-02-08T11:59:19.248Z,36.24
2023-02-08T12:00:19.239Z,36.22
2023-02-08T12:01:19.188Z,36.10
2023-02-08T12:02:19.266Z,35.88
2023-02-08T12:03:19.280Z,35.59
2023-02-08T12:04:19.216Z,36.21
2023-02-08T12:05:19.155Z,36.10
2023-02-08T12:06:19.179Z,37.04
2023-02-08T12:07:19.181Z,37.04
2023-02-08T12:08:19.161Z,37.55
2023-02-08T12:09:19.099Z,37.65
2023-02-08T12:10:19.110Z,37.33
2023-02-08T12:11:19.081Z,38.03
2023-02-08T12:12:19.115Z,37.09
2023-02-08T12:13:19.095Z,37.07
2023-02-08T12:14:19.111Z,36.77
2023-02-08T12:15:19.060Z,36.97
2023-02-08T12:16:19.196Z,36.99
2023-02-08T12:17:19.031Z,36.70
2023-02-08T12:18:19.004Z,36.88
2023-02-08T12:19:19.012Z,36.90
2023-02-08T12:20:19.072Z,37.60
2023-02-08T12:21:19.015Z,37.09
2023-02-08T12:22:18.974Z,36.90
2023-02-08T12:23:18.963Z,37.33
2023-02-08T12:24:18.973Z,37.84
2023-02-08T12:25:18.924Z,37.33
2023-02-08T12:26:18.941Z,37.33
2023-02-08T12:27:18.909Z,36.51
2023-02-08T12:28:18.932Z,36.61
2023-02-08T12:29:18.901Z,36.80
2023-02-08T12:30:18.878Z,36.72
2023-02-08T12:31:18.985Z,36.72
2023-02-08T12:32:18.848Z,37.23
2023-02-08T12:33:18.814Z,36.61
2023-02-08T12:34:18.880Z,36.19
2023-02-08T12:35:26.766Z,35.88
2023-02-08T12:36:19.814Z,36.79
2023-02-08T12:37:18.813Z,36.07
2023-02-08T12:38:18.770Z,35.56
2023-02-08T12:39:21.209Z,35.99
2023-02-08T12:40:18.794Z,36.21
2023-02-08T12:41:18.893Z,36.61
2023-02-08T12:42:18.785Z,36.60
2023-02-08T12:43:18.711Z,35.99
2023-02-08T12:44:18.718Z,36.08
2023-02-08T12:45:18.688Z,36.10
2023-02-08T12:46:18.682Z,35.88
2023-02-08T12:47:18.700Z,35.37
2023-02-08T12:48:18.668Z,35.68
2023-02-08T12:49:18.664Z,36.00
2023-02-08T12:50:18.654Z,36.72
2023-02-08T12:51:18.620Z,36.61
2023-02-08T12:52:18.601Z,36.21